sensor_id;sensor_type;location;lat;lon;timestamp;temperature;humidity
8778;DHT22;4425;50.872;4.712;2022-12-18T00:00:40;-4.30;99.90
8778;DHT22;4425;50.872;4.712;2022-12-18T00:03:08;-4.20;99.90
8778;DHT22;4425;50.872;4.712;2022-12-18T00:05:36;-4.30;99.90
8778;DHT22;4425;50.872;4.712;2022-12-18T00:08:05;-4.30;99.90
8778;DHT22;4425;50.872;4.712;2022-12-18T00:10:32;-4.30;99.90
8778;DHT22;4425;50.872;4.712;2022-12-18T00:13:00;-4.30;99.90
8778;DHT22;4425;50.872;4.712;2022-12-18T00:15:34;-4.40;99.90
8778;DHT22;4425;50.872;4.712;2022-12-18T00:18:02;-4.40;99.90
8778;DHT22;4425;50.872;4.712;2022-12-18T00:20:30;-4.30;99.90
8778;DHT22;4425;50.872;4.712;2022-12-18T00:22:58;-4.30;99.90
8778;DHT22;4425;50.872;4.712;2022-12-18T00:25:27;-4.30;99.90
8778;DHT22;4425;50.872;4.712;2022-12-18T00:27:55;-4.30;99.90
8778;DHT22;4425;50.872;4.712;2022-12-18T00:30:22;-4.30;99.90
8778;DHT22;4425;50.872;4.712;2022-12-18T00:32:50;-4.30;99.90
8778;DHT22;4425;50.872;4.712;2022-12-18T00:35:18;-4.40;99.90
8778;DHT22;4425;50.872;4.712;2022-12-18T00:37:45;-4.50;99.90
8778;DHT22;4425;50.872;4.712;2022-12-18T00:40:14;-4.50;99.90
8778;DHT22;4425;50.872;4.712;2022-12-18T00:42:44;-4.60;99.90
8778;DHT22;4425;50.872;4.712;2022-12-18T00:45:22;-4.60;99.90
8778;DHT22;4425;50.872;4.712;2022-12-18T00:47:49;-4.70;99.90
8778;DHT22;4425;50.872;4.712;2022-12-18T00:50:16;-4.70;99.90
8778;DHT22;4425;50.872;4.712;2022-12-18T00:52:44;-4.70;99.90
8778;DHT22;4425;50.872;4.712;2022-12-18T00:55:16;-4.60;99.90
8778;DHT22;4425;50.872;4.712;2022-12-18T00:57:44;-4.70;99.90
8778;DHT22;4425;50.872;4.712;2022-12-18T01:00:14;-4.70;99.90
8778;DHT22;4425;50.872;4.712;2022-12-18T01:02:42;-4.60;99.90
8778;DHT22;4425;50.872;4.712;2022-12-18T01:05:11;-4.60;99.90
8778;DHT22;4425;50.872;4.712;2022-12-18T01:07:41;-4.60;99.90
8778;DHT22;4425;50.872;4.712;2022-12-18T01:10:10;-4.70;99.90
8778;DHT22;4425;50.872;4.712;2022-12-18T01:12:39;-4.70;99.90
8778;DHT22;4425;50.872;4.712;2022-12-18T01:15:07;-4.70;99.90
8778;DHT22;4425;50.872;4.712;2022-12-18T01:17:35;-4.70;99.90
8778;DHT22;4425;50.872;4.712;2022-12-18T01:20:02;-4.70;99.90
8778;DHT22;4425;50.872;4.712;2022-12-18T01:22:29;-4.80;99.90
8778;DHT22;4425;50.872;4.712;2022-12-18T01:24:57;-4.80;99.90
8778;DHT22;4425;50.872;4.712;2022-12-18T01:27:24;-4.80;99.90
8778;DHT22;4425;50.872;4.712;2022-12-18T01:29:52;-4.80;99.90
8778;DHT22;4425;50.872;4.712;2022-12-18T01:32:20;-4.80;99.90
8778;DHT22;4425;50.872;4.712;2022-12-18T01:34:47;-4.90;99.90
8778;DHT22;4425;50.872;4.712;2022-12-18T01:37:14;-5.00;99.90
8778;DHT22;4425;50.872;4.712;2022-12-18T01:39:42;-5.00;99.90
8778;DHT22;4425;50.872;4.712;2022-12-18T01:42:12;-5.00;99.90
8778;DHT22;4425;50.872;4.712;2022-12-18T01:45:06;-5.00;99.90
8778;DHT22;4425;50.872;4.712;2022-12-18T01:47:37;-5.00;99.90
8778;DHT22;4425;50.872;4.712;2022-12-18T01:50:08;-4.90;99.90
8778;DHT22;4425;50.872;4.712;2022-12-18T01:52:37;-4.90;99.90
8778;DHT22;4425;50.872;4.712;2022-12-18T01:55:05;-4.80;99.90
8778;DHT22;4425;50.872;4.712;2022-12-18T01:57:33;-4.80;99.90
8778;DHT22;4425;50.872;4.712;2022-12-18T02:00:05;-4.70;99.90
8778;DHT22;4425;50.872;4.712;2022-12-18T02:02:34;-4.90;99.90
8778;DHT22;4425;50.872;4.712;2022-12-18T02:05:02;-4.90;99.90
8778;DHT22;4425;50.872;4.712;2022-12-18T02:07:38;-5.00;99.90
8778;DHT22;4425;50.872;4.712;2022-12-18T02:10:12;-5.00;99.90
8778;DHT22;4425;50.872;4.712;2022-12-18T02:12:48;-5.00;99.90
8778;DHT22;4425;50.872;4.712;2022-12-18T02:15:23;-5.00;99.90
8778;DHT22;4425;50.872;4.712;2022-12-18T02:17:55;-5.00;99.90
8778;DHT22;4425;50.872;4.712;2022-12-18T02:20:28;-5.00;99.90
8778;DHT22;4425;50.872;4.712;2022-12-18T02:23:09;-5.00;99.90
8778;DHT22;4425;50.872;4.712;2022-12-18T02:26:10;-5.00;99.90
8778;DHT22;4425;50.872;4.712;2022-12-18T02:28:52;-4.90;99.90
8778;DHT22;4425;50.872;4.712;2022-12-18T02:31:24;-4.70;99.90
8778;DHT22;4425;50.872;4.712;2022-12-18T02:33:54;-4.80;99.90
8778;DHT22;4425;50.872;4.712;2022-12-18T02:36:24;-4.80;99.90
8778;DHT22;4425;50.872;4.712;2022-12-18T02:38:54;-4.80;99.90
8778;DHT22;4425;50.872;4.712;2022-12-18T02:41:26;-4.80;99.90
8778;DHT22;4425;50.872;4.712;2022-12-18T02:43:56;-4.80;99.90
8778;DHT22;4425;50.872;4.712;2022-12-18T02:46:28;-4.80;99.90
8778;DHT22;4425;50.872;4.712;2022-12-18T02:49:05;-4.80;99.90
8778;DHT22;4425;50.872;4.712;2022-12-18T02:51:38;-4.90;99.90
8778;DHT22;4425;50.872;4.712;2022-12-18T02:54:10;-4.90;99.90
8778;DHT22;4425;50.872;4.712;2022-12-18T02:56:48;-4.90;99.90
8778;DHT22;4425;50.872;4.712;2022-12-18T02:59:21;-4.90;99.90
8778;DHT22;4425;50.872;4.712;2022-12-18T03:01:54;-4.90;99.90
8778;DHT22;4425;50.872;4.712;2022-12-18T03:04:28;-4.90;99.90
8778;DHT22;4425;50.872;4.712;2022-12-18T03:07:03;-4.90;99.90
8778;DHT22;4425;50.872;4.712;2022-12-18T03:09:34;-4.90;99.90
8778;DHT22;4425;50.872;4.712;2022-12-18T03:12:12;-4.90;99.90
8778;DHT22;4425;50.872;4.712;2022-12-18T03:14:56;-4.90;99.90
8778;DHT22;4425;50.872;4.712;2022-12-18T03:17:28;-5.00;99.90
8778;DHT22;4425;50.872;4.712;2022-12-18T03:20:00;-5.00;99.90
8778;DHT22;4425;50.872;4.712;2022-12-18T03:22:31;-5.00;99.90
8778;DHT22;4425;50.872;4.712;2022-12-18T03:25:03;-5.00;99.90
8778;DHT22;4425;50.872;4.712;2022-12-18T03:27:37;-5.00;99.90
8778;DHT22;4425;50.872;4.712;2022-12-18T03:30:07;-5.00;99.90
8778;DHT22;4425;50.872;4.712;2022-12-18T03:32:39;-5.10;99.90
8778;DHT22;4425;50.872;4.712;2022-12-18T03:35:11;-5.10;99.90
8778;DHT22;4425;50.872;4.712;2022-12-18T03:37:39;-5.20;99.90
8778;DHT22;4425;50.872;4.712;2022-12-18T03:40:08;-5.20;99.90
8778;DHT22;4425;50.872;4.712;2022-12-18T03:42:43;-5.20;99.90
8778;DHT22;4425;50.872;4.712;2022-12-18T03:45:19;-5.30;99.90
8778;DHT22;4425;50.872;4.712;2022-12-18T03:47:54;-5.20;99.90
8778;DHT22;4425;50.872;4.712;2022-12-18T03:50:30;-5.20;99.90
8778;DHT22;4425;50.872;4.712;2022-12-18T03:53:09;-5.20;99.90
8778;DHT22;4425;50.872;4.712;2022-12-18T03:55:40;-5.10;99.90
8778;DHT22;4425;50.872;4.712;2022-12-18T03:58:11;-5.20;99.90
8778;DHT22;4425;50.872;4.712;2022-12-18T04:00:40;-5.20;99.90
8778;DHT22;4425;50.872;4.712;2022-12-18T04:03:08;-5.20;99.90
8778;DHT22;4425;50.872;4.712;2022-12-18T04:05:37;-5.20;99.90
8778;DHT22;4425;50.872;4.712;2022-12-18T04:08:06;-5.30;99.90
8778;DHT22;4425;50.872;4.712;2022-12-18T04:10:34;-5.30;99.90
8778;DHT22;4425;50.872;4.712;2022-12-18T04:13:01;-5.30;99.90
8778;DHT22;4425;50.872;4.712;2022-12-18T04:15:34;-5.40;99.90
8778;DHT22;4425;50.872;4.712;2022-12-18T04:18:02;-5.30;99.90
8778;DHT22;4425;50.872;4.712;2022-12-18T04:20:30;-5.30;99.90
8778;DHT22;4425;50.872;4.712;2022-12-18T04:23:01;-5.30;99.90
8778;DHT22;4425;50.872;4.712;2022-12-18T04:25:28;-5.30;99.90
8778;DHT22;4425;50.872;4.712;2022-12-18T04:27:55;-5.30;99.90
8778;DHT22;4425;50.872;4.712;2022-12-18T04:30:22;-5.30;99.90
8778;DHT22;4425;50.872;4.712;2022-12-18T04:32:51;-5.30;99.90
8778;DHT22;4425;50.872;4.712;2022-12-18T04:35:20;-5.30;99.90
8778;DHT22;4425;50.872;4.712;2022-12-18T04:37:47;-5.30;99.90
8778;DHT22;4425;50.872;4.712;2022-12-18T04:40:16;-5.20;99.90
8778;DHT22;4425;50.872;4.712;2022-12-18T04:42:44;-5.20;99.90
8778;DHT22;4425;50.872;4.712;2022-12-18T04:45:11;-5.20;99.90
8778;DHT22;4425;50.872;4.712;2022-12-18T04:47:39;-5.20;99.90
8778;DHT22;4425;50.872;4.712;2022-12-18T04:50:10;-5.20;99.90
8778;DHT22;4425;50.872;4.712;2022-12-18T04:52:38;-5.20;99.90
8778;DHT22;4425;50.872;4.712;2022-12-18T04:55:07;-5.20;99.90
8778;DHT22;4425;50.872;4.712;2022-12-18T04:57:36;-5.20;99.90
8778;DHT22;4425;50.872;4.712;2022-12-18T05:00:04;-5.30;99.90
8778;DHT22;4425;50.872;4.712;2022-12-18T05:02:32;-5.30;99.90
8778;DHT22;4425;50.872;4.712;2022-12-18T05:04:59;-5.20;99.90
8778;DHT22;4425;50.872;4.712;2022-12-18T05:07:30;-5.30;99.90
8778;DHT22;4425;50.872;4.712;2022-12-18T05:09:57;-5.30;99.90
8778;DHT22;4425;50.872;4.712;2022-12-18T05:12:24;-5.20;99.90
8778;DHT22;4425;50.872;4.712;2022-12-18T05:14:52;-5.40;99.90
8778;DHT22;4425;50.872;4.712;2022-12-18T05:17:22;-5.40;99.90
8778;DHT22;4425;50.872;4.712;2022-12-18T05:19:49;-5.40;99.90
8778;DHT22;4425;50.872;4.712;2022-12-18T05:22:16;-5.40;99.90
8778;DHT22;4425;50.872;4.712;2022-12-18T05:24:45;-5.40;99.90
8778;DHT22;4425;50.872;4.712;2022-12-18T05:27:12;-5.40;99.90
8778;DHT22;4425;50.872;4.712;2022-12-18T05:29:39;-5.40;99.90
8778;DHT22;4425;50.872;4.712;2022-12-18T05:32:07;-5.40;99.90
8778;DHT22;4425;50.872;4.712;2022-12-18T05:34:34;-5.50;99.90
8778;DHT22;4425;50.872;4.712;2022-12-18T05:37:03;-5.50;99.90
8778;DHT22;4425;50.872;4.712;2022-12-18T05:39:30;-5.60;99.90
8778;DHT22;4425;50.872;4.712;2022-12-18T05:41:59;-5.50;99.90
8778;DHT22;4425;50.872;4.712;2022-12-18T05:44:26;-5.60;99.90
8778;DHT22;4425;50.872;4.712;2022-12-18T05:46:53;-5.60;99.90
8778;DHT22;4425;50.872;4.712;2022-12-18T05:49:20;-5.70;99.90
8778;DHT22;4425;50.872;4.712;2022-12-18T05:51:47;-5.70;99.90
8778;DHT22;4425;50.872;4.712;2022-12-18T05:54:14;-5.70;99.90
8778;DHT22;4425;50.872;4.712;2022-12-18T05:56:41;-5.70;99.90
8778;DHT22;4425;50.872;4.712;2022-12-18T05:59:13;-5.70;99.90
8778;DHT22;4425;50.872;4.712;2022-12-18T06:01:42;-5.60;99.90
8778;DHT22;4425;50.872;4.712;2022-12-18T06:04:10;-5.60;99.90
8778;DHT22;4425;50.872;4.712;2022-12-18T06:06:40;-5.60;99.90
8778;DHT22;4425;50.872;4.712;2022-12-18T06:09:09;-5.50;99.90
8778;DHT22;4425;50.872;4.712;2022-12-18T06:11:39;-5.40;99.90
8778;DHT22;4425;50.872;4.712;2022-12-18T06:14:08;-5.40;99.90
8778;DHT22;4425;50.872;4.712;2022-12-18T06:16:42;-5.40;99.90
8778;DHT22;4425;50.872;4.712;2022-12-18T06:19:14;-5.40;99.90
8778;DHT22;4425;50.872;4.712;2022-12-18T06:21:42;-5.50;99.90
8778;DHT22;4425;50.872;4.712;2022-12-18T06:24:10;-5.50;99.90
8778;DHT22;4425;50.872;4.712;2022-12-18T06:26:38;-5.50;99.90
8778;DHT22;4425;50.872;4.712;2022-12-18T06:29:08;-5.50;99.90
8778;DHT22;4425;50.872;4.712;2022-12-18T06:31:37;-5.50;99.90
8778;DHT22;4425;50.872;4.712;2022-12-18T06:34:05;-5.50;99.90
8778;DHT22;4425;50.872;4.712;2022-12-18T06:36:34;-5.60;99.90
8778;DHT22;4425;50.872;4.712;2022-12-18T06:39:02;-5.70;99.90
8778;DHT22;4425;50.872;4.712;2022-12-18T06:41:29;-5.70;99.90
8778;DHT22;4425;50.872;4.712;2022-12-18T06:43:59;-5.70;99.90
8778;DHT22;4425;50.872;4.712;2022-12-18T06:46:27;-5.50;99.90
8778;DHT22;4425;50.872;4.712;2022-12-18T06:48:56;-5.70;99.90
8778;DHT22;4425;50.872;4.712;2022-12-18T06:51:23;-5.60;99.90
8778;DHT22;4425;50.872;4.712;2022-12-18T06:53:51;-5.60;99.90
8778;DHT22;4425;50.872;4.712;2022-12-18T06:56:20;-5.60;99.90
8778;DHT22;4425;50.872;4.712;2022-12-18T06:58:47;-5.60;99.90
8778;DHT22;4425;50.872;4.712;2022-12-18T07:01:14;-5.60;99.90
8778;DHT22;4425;50.872;4.712;2022-12-18T07:03:42;-5.50;99.90
8778;DHT22;4425;50.872;4.712;2022-12-18T07:06:16;-5.60;99.90
8778;DHT22;4425;50.872;4.712;2022-12-18T07:08:45;-5.40;99.90
8778;DHT22;4425;50.872;4.712;2022-12-18T07:11:13;-5.50;99.90
8778;DHT22;4425;50.872;4.712;2022-12-18T07:13:40;-5.50;99.90
8778;DHT22;4425;50.872;4.712;2022-12-18T07:16:10;-5.60;99.90
8778;DHT22;4425;50.872;4.712;2022-12-18T07:18:39;-5.60;99.90
8778;DHT22;4425;50.872;4.712;2022-12-18T07:21:07;-5.50;99.90
8778;DHT22;4425;50.872;4.712;2022-12-18T07:23:37;-5.60;99.90
8778;DHT22;4425;50.872;4.712;2022-12-18T07:26:09;-5.60;99.90
8778;DHT22;4425;50.872;4.712;2022-12-18T07:28:39;-5.50;99.90
8778;DHT22;4425;50.872;4.712;2022-12-18T07:31:07;-5.40;99.90
8778;DHT22;4425;50.872;4.712;2022-12-18T07:33:35;-5.40;99.90
8778;DHT22;4425;50.872;4.712;2022-12-18T07:36:04;-5.40;99.90
8778;DHT22;4425;50.872;4.712;2022-12-18T07:38:38;-5.30;99.90
8778;DHT22;4425;50.872;4.712;2022-12-18T07:41:06;-5.30;99.90
8778;DHT22;4425;50.872;4.712;2022-12-18T07:43:34;-5.20;99.90
8778;DHT22;4425;50.872;4.712;2022-12-18T07:46:05;-5.10;99.90
8778;DHT22;4425;50.872;4.712;2022-12-18T07:48:35;-5.10;99.90
8778;DHT22;4425;50.872;4.712;2022-12-18T07:51:06;-5.20;99.90
8778;DHT22;4425;50.872;4.712;2022-12-18T07:53:36;-5.30;99.90
8778;DHT22;4425;50.872;4.712;2022-12-18T07:56:07;-5.30;99.90
8778;DHT22;4425;50.872;4.712;2022-12-18T07:58:38;-5.40;99.90
8778;DHT22;4425;50.872;4.712;2022-12-18T08:01:07;-5.50;99.90
8778;DHT22;4425;50.872;4.712;2022-12-18T08:03:43;-5.40;99.90
8778;DHT22;4425;50.872;4.712;2022-12-18T08:06:11;-5.40;99.90
8778;DHT22;4425;50.872;4.712;2022-12-18T08:08:41;-5.40;99.90
8778;DHT22;4425;50.872;4.712;2022-12-18T08:11:08;-5.40;99.90
8778;DHT22;4425;50.872;4.712;2022-12-18T08:13:35;-5.30;99.90
8778;DHT22;4425;50.872;4.712;2022-12-18T08:16:05;-5.30;99.90
8778;DHT22;4425;50.872;4.712;2022-12-18T08:18:32;-5.20;99.90
8778;DHT22;4425;50.872;4.712;2022-12-18T08:21:08;-5.10;99.90
8778;DHT22;4425;50.872;4.712;2022-12-18T08:23:36;-5.10;99.90
8778;DHT22;4425;50.872;4.712;2022-12-18T08:26:05;-4.90;99.90
8778;DHT22;4425;50.872;4.712;2022-12-18T08:28:33;-4.80;99.90
8778;DHT22;4425;50.872;4.712;2022-12-18T08:31:00;-4.90;99.90
8778;DHT22;4425;50.872;4.712;2022-12-18T08:33:27;-4.90;99.90
8778;DHT22;4425;50.872;4.712;2022-12-18T08:35:55;-4.60;99.90
8778;DHT22;4425;50.872;4.712;2022-12-18T08:38:24;-4.60;99.90
8778;DHT22;4425;50.872;4.712;2022-12-18T08:40:58;-4.30;99.90
8778;DHT22;4425;50.872;4.712;2022-12-18T08:43:28;-4.50;99.90
8778;DHT22;4425;50.872;4.712;2022-12-18T08:46:13;-4.40;99.90
8778;DHT22;4425;50.872;4.712;2022-12-18T08:48:40;-4.30;99.90
8778;DHT22;4425;50.872;4.712;2022-12-18T08:51:09;-4.20;99.90
8778;DHT22;4425;50.872;4.712;2022-12-18T08:53:39;-4.10;99.90
8778;DHT22;4425;50.872;4.712;2022-12-18T08:56:07;-4.10;99.90
8778;DHT22;4425;50.872;4.712;2022-12-18T08:58:37;-4.00;99.90
8778;DHT22;4425;50.872;4.712;2022-12-18T09:01:06;-3.90;99.90
8778;DHT22;4425;50.872;4.712;2022-12-18T09:03:39;-3.80;99.90
8778;DHT22;4425;50.872;4.712;2022-12-18T09:06:13;-3.70;99.90
8778;DHT22;4425;50.872;4.712;2022-12-18T09:08:42;-3.60;99.90
8778;DHT22;4425;50.872;4.712;2022-12-18T09:11:15;-3.50;99.90
8778;DHT22;4425;50.872;4.712;2022-12-18T09:13:51;-3.50;99.90
8778;DHT22;4425;50.872;4.712;2022-12-18T09:16:19;-3.50;99.90
8778;DHT22;4425;50.872;4.712;2022-12-18T09:18:48;-3.40;99.90
8778;DHT22;4425;50.872;4.712;2022-12-18T09:21:16;-3.30;99.90
8778;DHT22;4425;50.872;4.712;2022-12-18T09:23:48;-3.20;99.90
8778;DHT22;4425;50.872;4.712;2022-12-18T09:26:15;-3.10;99.90
8778;DHT22;4425;50.872;4.712;2022-12-18T09:28:43;-3.00;99.90
8778;DHT22;4425;50.872;4.712;2022-12-18T09:31:13;-2.90;99.90
8778;DHT22;4425;50.872;4.712;2022-12-18T09:33:46;-2.80;99.90
8778;DHT22;4425;50.872;4.712;2022-12-18T09:36:16;-2.70;99.90
8778;DHT22;4425;50.872;4.712;2022-12-18T09:38:44;-2.60;99.90
8778;DHT22;4425;50.872;4.712;2022-12-18T09:41:25;-2.50;99.90
8778;DHT22;4425;50.872;4.712;2022-12-18T09:44:01;-2.60;99.90
8778;DHT22;4425;50.872;4.712;2022-12-18T09:46:35;-2.50;99.90
8778;DHT22;4425;50.872;4.712;2022-12-18T09:49:09;-2.50;99.90
8778;DHT22;4425;50.872;4.712;2022-12-18T09:51:42;-2.50;99.90
8778;DHT22;4425;50.872;4.712;2022-12-18T09:54:14;-2.40;99.90
8778;DHT22;4425;50.872;4.712;2022-12-18T09:56:45;-2.40;99.90
8778;DHT22;4425;50.872;4.712;2022-12-18T09:59:19;-2.30;99.90
8778;DHT22;4425;50.872;4.712;2022-12-18T10:01:51;-2.30;99.90
8778;DHT22;4425;50.872;4.712;2022-12-18T10:04:18;-2.20;99.90
8778;DHT22;4425;50.872;4.712;2022-12-18T10:06:51;-2.10;99.90
8778;DHT22;4425;50.872;4.712;2022-12-18T10:09:26;-1.90;99.90
8778;DHT22;4425;50.872;4.712;2022-12-18T10:12:02;-1.90;99.90
8778;DHT22;4425;50.872;4.712;2022-12-18T10:14:36;-1.90;99.90
8778;DHT22;4425;50.872;4.712;2022-12-18T10:17:14;-1.80;99.90
8778;DHT22;4425;50.872;4.712;2022-12-18T10:19:48;-1.90;99.90
8778;DHT22;4425;50.872;4.712;2022-12-18T10:22:41;-1.80;99.90
8778;DHT22;4425;50.872;4.712;2022-12-18T10:25:20;-1.80;99.90
8778;DHT22;4425;50.872;4.712;2022-12-18T10:27:52;-1.80;99.90
8778;DHT22;4425;50.872;4.712;2022-12-18T10:30:22;-1.80;99.90
8778;DHT22;4425;50.872;4.712;2022-12-18T10:32:53;-1.60;99.90
8778;DHT22;4425;50.872;4.712;2022-12-18T10:35:23;-1.50;99.90
8778;DHT22;4425;50.872;4.712;2022-12-18T10:38:06;-1.30;99.90
8778;DHT22;4425;50.872;4.712;2022-12-18T10:40:49;-1.40;99.90
8778;DHT22;4425;50.872;4.712;2022-12-18T10:43:20;-1.30;99.90
8778;DHT22;4425;50.872;4.712;2022-12-18T10:46:12;-1.20;99.90
8778;DHT22;4425;50.872;4.712;2022-12-18T10:48:52;-1.10;99.90
8778;DHT22;4425;50.872;4.712;2022-12-18T10:51:22;-1.10;99.90
8778;DHT22;4425;50.872;4.712;2022-12-18T10:53:55;-1.10;99.90
8778;DHT22;4425;50.872;4.712;2022-12-18T10:56:26;-1.10;99.90
8778;DHT22;4425;50.872;4.712;2022-12-18T10:59:13;-1.00;99.90
8778;DHT22;4425;50.872;4.712;2022-12-18T11:01:51;-1.00;99.90
8778;DHT22;4425;50.872;4.712;2022-12-18T11:04:25;-0.90;99.90
8778;DHT22;4425;50.872;4.712;2022-12-18T11:06:58;-0.80;99.90
8778;DHT22;4425;50.872;4.712;2022-12-18T11:09:27;-0.80;99.90
8778;DHT22;4425;50.872;4.712;2022-12-18T11:11:56;-0.70;99.90
8778;DHT22;4425;50.872;4.712;2022-12-18T11:14:27;-0.60;99.90
8778;DHT22;4425;50.872;4.712;2022-12-18T11:16:56;-0.50;99.90
8778;DHT22;4425;50.872;4.712;2022-12-18T11:19:32;-0.40;99.90
8778;DHT22;4425;50.872;4.712;2022-12-18T11:22:01;-0.40;99.90
8778;DHT22;4425;50.872;4.712;2022-12-18T11:24:32;-0.50;99.90
8778;DHT22;4425;50.872;4.712;2022-12-18T11:27:02;-0.30;99.90
8778;DHT22;4425;50.872;4.712;2022-12-18T11:29:34;-0.50;99.90
8778;DHT22;4425;50.872;4.712;2022-12-18T11:32:34;-0.40;99.90
8778;DHT22;4425;50.872;4.712;2022-12-18T11:35:15;-0.30;99.90
8778;DHT22;4425;50.872;4.712;2022-12-18T11:37:47;-0.20;99.90
8778;DHT22;4425;50.872;4.712;2022-12-18T11:40:17;-0.20;99.90
8778;DHT22;4425;50.872;4.712;2022-12-18T11:42:51;-0.30;99.90
8778;DHT22;4425;50.872;4.712;2022-12-18T11:45:28;-0.30;99.90
8778;DHT22;4425;50.872;4.712;2022-12-18T11:48:04;-0.30;99.90
8778;DHT22;4425;50.872;4.712;2022-12-18T11:50:42;-0.30;99.90
8778;DHT22;4425;50.872;4.712;2022-12-18T11:53:14;-0.20;99.90
8778;DHT22;4425;50.872;4.712;2022-12-18T11:55:56;-0.20;99.90
8778;DHT22;4425;50.872;4.712;2022-12-18T11:58:40;-0.10;99.90
8778;DHT22;4425;50.872;4.712;2022-12-18T12:01:18;0.00;99.90
8778;DHT22;4425;50.872;4.712;2022-12-18T12:03:59;0.00;99.90
8778;DHT22;4425;50.872;4.712;2022-12-18T12:06:42;0.10;99.90
8778;DHT22;4425;50.872;4.712;2022-12-18T12:09:18;0.10;99.90
8778;DHT22;4425;50.872;4.712;2022-12-18T12:11:55;0.00;99.90
8778;DHT22;4425;50.872;4.712;2022-12-18T12:14:38;0.00;99.90
8778;DHT22;4425;50.872;4.712;2022-12-18T12:17:16;0.00;99.90
8778;DHT22;4425;50.872;4.712;2022-12-18T12:19:51;0.10;99.90
8778;DHT22;4425;50.872;4.712;2022-12-18T12:22:32;0.10;99.90
8778;DHT22;4425;50.872;4.712;2022-12-18T12:25:18;0.10;99.90
8778;DHT22;4425;50.872;4.712;2022-12-18T12:27:53;0.00;99.90
8778;DHT22;4425;50.872;4.712;2022-12-18T12:30:30;0.10;99.90
8778;DHT22;4425;50.872;4.712;2022-12-18T12:33:11;0.00;99.90
8778;DHT22;4425;50.872;4.712;2022-12-18T12:35:47;0.10;99.90
8778;DHT22;4425;50.872;4.712;2022-12-18T12:38:23;0.10;99.90
8778;DHT22;4425;50.872;4.712;2022-12-18T12:40:56;0.20;99.90
8778;DHT22;4425;50.872;4.712;2022-12-18T12:43:33;0.20;99.90
8778;DHT22;4425;50.872;4.712;2022-12-18T12:46:04;0.20;99.90
8778;DHT22;4425;50.872;4.712;2022-12-18T12:48:43;0.20;99.90
8778;DHT22;4425;50.872;4.712;2022-12-18T12:51:17;0.30;99.90
8778;DHT22;4425;50.872;4.712;2022-12-18T12:53:46;0.40;99.90
8778;DHT22;4425;50.872;4.712;2022-12-18T12:56:16;0.30;99.90
8778;DHT22;4425;50.872;4.712;2022-12-18T12:58:54;0.40;99.90
8778;DHT22;4425;50.872;4.712;2022-12-18T13:01:32;0.40;99.90
8778;DHT22;4425;50.872;4.712;2022-12-18T13:04:11;0.50;99.90
8778;DHT22;4425;50.872;4.712;2022-12-18T13:06:55;0.50;99.90
8778;DHT22;4425;50.872;4.712;2022-12-18T13:09:32;0.50;99.90
8778;DHT22;4425;50.872;4.712;2022-12-18T13:12:02;0.70;99.90
8778;DHT22;4425;50.872;4.712;2022-12-18T13:14:49;0.60;99.90
8778;DHT22;4425;50.872;4.712;2022-12-18T13:17:29;0.60;99.90
8778;DHT22;4425;50.872;4.712;2022-12-18T13:20:10;0.70;99.90
8778;DHT22;4425;50.872;4.712;2022-12-18T13:22:43;0.80;99.90
8778;DHT22;4425;50.872;4.712;2022-12-18T13:25:35;0.80;99.90
8778;DHT22;4425;50.872;4.712;2022-12-18T13:28:09;0.80;99.90
8778;DHT22;4425;50.872;4.712;2022-12-18T13:30:55;0.90;99.90
8778;DHT22;4425;50.872;4.712;2022-12-18T13:33:47;0.90;99.90
8778;DHT22;4425;50.872;4.712;2022-12-18T13:36:32;0.90;99.90
8778;DHT22;4425;50.872;4.712;2022-12-18T13:39:23;0.90;99.90
8778;DHT22;4425;50.872;4.712;2022-12-18T13:41:54;1.00;99.90
8778;DHT22;4425;50.872;4.712;2022-12-18T13:45:02;1.00;99.90
8778;DHT22;4425;50.872;4.712;2022-12-18T13:47:51;1.00;99.90
8778;DHT22;4425;50.872;4.712;2022-12-18T13:50:23;0.90;99.90
8778;DHT22;4425;50.872;4.712;2022-12-18T13:52:52;1.10;99.90
8778;DHT22;4425;50.872;4.712;2022-12-18T13:55:21;1.00;99.90
8778;DHT22;4425;50.872;4.712;2022-12-18T13:58:05;1.00;99.90
8778;DHT22;4425;50.872;4.712;2022-12-18T14:00:41;1.00;99.90
8778;DHT22;4425;50.872;4.712;2022-12-18T14:03:22;1.00;99.90
8778;DHT22;4425;50.872;4.712;2022-12-18T14:06:00;1.00;99.90
8778;DHT22;4425;50.872;4.712;2022-12-18T14:08:34;1.00;99.90
8778;DHT22;4425;50.872;4.712;2022-12-18T14:11:22;1.00;99.90
8778;DHT22;4425;50.872;4.712;2022-12-18T14:13:55;1.00;99.90
8778;DHT22;4425;50.872;4.712;2022-12-18T14:16:23;1.00;99.90
8778;DHT22;4425;50.872;4.712;2022-12-18T14:18:53;1.00;99.90
8778;DHT22;4425;50.872;4.712;2022-12-18T14:21:30;0.90;99.90
8778;DHT22;4425;50.872;4.712;2022-12-18T14:24:05;0.90;99.90
8778;DHT22;4425;50.872;4.712;2022-12-18T14:26:33;0.90;99.90
8778;DHT22;4425;50.872;4.712;2022-12-18T14:29:28;0.90;99.90
8778;DHT22;4425;50.872;4.712;2022-12-18T14:32:11;0.90;99.90
8778;DHT22;4425;50.872;4.712;2022-12-18T14:34:46;0.90;99.90
8778;DHT22;4425;50.872;4.712;2022-12-18T14:37:16;0.90;99.90
8778;DHT22;4425;50.872;4.712;2022-12-18T14:40:03;0.90;99.90
8778;DHT22;4425;50.872;4.712;2022-12-18T14:42:32;0.90;99.90
8778;DHT22;4425;50.872;4.712;2022-12-18T14:48:08;0.90;99.90
8778;DHT22;4425;50.872;4.712;2022-12-18T14:50:37;0.80;99.90
8778;DHT22;4425;50.872;4.712;2022-12-18T14:53:06;0.80;99.90
8778;DHT22;4425;50.872;4.712;2022-12-18T14:55:46;1.30;99.90
8778;DHT22;4425;50.872;4.712;2022-12-18T14:58:15;1.40;99.90
8778;DHT22;4425;50.872;4.712;2022-12-18T15:00:44;1.20;99.90
8778;DHT22;4425;50.872;4.712;2022-12-18T15:03:18;1.10;99.90
8778;DHT22;4425;50.872;4.712;2022-12-18T15:05:47;1.10;99.90
8778;DHT22;4425;50.872;4.712;2022-12-18T15:08:34;1.00;99.90
8778;DHT22;4425;50.872;4.712;2022-12-18T15:11:02;1.00;99.90
8778;DHT22;4425;50.872;4.712;2022-12-18T15:13:29;1.00;99.90
8778;DHT22;4425;50.872;4.712;2022-12-18T15:15:57;1.00;99.90
8778;DHT22;4425;50.872;4.712;2022-12-18T15:18:30;0.80;99.90
8778;DHT22;4425;50.872;4.712;2022-12-18T15:21:00;0.90;99.90
8778;DHT22;4425;50.872;4.712;2022-12-18T15:23:36;0.80;99.90
8778;DHT22;4425;50.872;4.712;2022-12-18T15:26:07;0.80;99.90
8778;DHT22;4425;50.872;4.712;2022-12-18T15:28:37;0.80;99.90
8778;DHT22;4425;50.872;4.712;2022-12-18T15:31:22;0.80;99.90
8778;DHT22;4425;50.872;4.712;2022-12-18T15:34:14;0.80;99.90
8778;DHT22;4425;50.872;4.712;2022-12-18T15:36:49;0.60;99.90
8778;DHT22;4425;50.872;4.712;2022-12-18T15:39:17;0.70;99.90
8778;DHT22;4425;50.872;4.712;2022-12-18T15:41:44;0.70;99.90
8778;DHT22;4425;50.872;4.712;2022-12-18T15:44:25;0.70;99.90
8778;DHT22;4425;50.872;4.712;2022-12-18T15:46:52;0.70;99.90
8778;DHT22;4425;50.872;4.712;2022-12-18T15:49:22;0.60;99.90
8778;DHT22;4425;50.872;4.712;2022-12-18T15:51:52;0.60;99.90
8778;DHT22;4425;50.872;4.712;2022-12-18T15:54:24;0.50;99.90
8778;DHT22;4425;50.872;4.712;2022-12-18T15:57:07;0.70;99.90
8778;DHT22;4425;50.872;4.712;2022-12-18T15:59:56;0.60;99.90
8778;DHT22;4425;50.872;4.712;2022-12-18T16:02:26;0.60;99.90
8778;DHT22;4425;50.872;4.712;2022-12-18T16:04:56;0.60;99.90
8778;DHT22;4425;50.872;4.712;2022-12-18T16:07:23;0.70;99.90
8778;DHT22;4425;50.872;4.712;2022-12-18T16:09:51;0.70;99.90
8778;DHT22;4425;50.872;4.712;2022-12-18T16:12:24;0.70;99.90
8778;DHT22;4425;50.872;4.712;2022-12-18T16:14:52;0.80;99.90
8778;DHT22;4425;50.872;4.712;2022-12-18T16:17:20;0.70;99.90
8778;DHT22;4425;50.872;4.712;2022-12-18T16:19:51;0.80;99.90
8778;DHT22;4425;50.872;4.712;2022-12-18T16:22:22;0.90;99.90
8778;DHT22;4425;50.872;4.712;2022-12-18T16:24:51;0.90;99.90
8778;DHT22;4425;50.872;4.712;2022-12-18T16:27:18;0.90;99.90
8778;DHT22;4425;50.872;4.712;2022-12-18T16:29:45;0.90;99.90
8778;DHT22;4425;50.872;4.712;2022-12-18T16:32:14;0.90;99.90
8778;DHT22;4425;50.872;4.712;2022-12-18T16:34:42;1.00;99.90
8778;DHT22;4425;50.872;4.712;2022-12-18T16:37:12;0.80;99.90
8778;DHT22;4425;50.872;4.712;2022-12-18T16:39:41;0.90;99.90
8778;DHT22;4425;50.872;4.712;2022-12-18T16:42:15;0.90;99.90